sensor_id;sensor_type;location;lat;lon;timestamp;P1;durP1;ratioP1;P2;durP2;ratioP2
15354;SDS011;7777;52.254;9.618;2023-07-30T00:01:58;3.73;;;1.43;;
15354;SDS011;7777;52.254;9.618;2023-07-30T00:04:24;3.40;;;1.80;;
15354;SDS011;7777;52.254;9.618;2023-07-30T00:06:50;3.23;;;1.40;;
15354;SDS011;7777;52.254;9.618;2023-07-30T00:09:16;2.40;;;1.43;;
15354;SDS011;7777;52.254;9.618;2023-07-30T00:11:42;3.40;;;1.60;;
15354;SDS011;7777;52.254;9.618;2023-07-30T00:14:07;3.33;;;1.50;;
15354;SDS011;7777;52.254;9.618;2023-07-30T00:16:33;3.90;;;1.60;;
15354;SDS011;7777;52.254;9.618;2023-07-30T00:18:59;3.30;;;1.70;;
15354;SDS011;7777;52.254;9.618;2023-07-30T00:21:25;3.87;;;1.50;;
15354;SDS011;7777;52.254;9.618;2023-07-30T00:23:50;3.23;;;1.40;;
15354;SDS011;7777;52.254;9.618;2023-07-30T00:26:16;6.03;;;1.10;;
15354;SDS011;7777;52.254;9.618;2023-07-30T00:28:42;2.40;;;1.47;;
15354;SDS011;7777;52.254;9.618;2023-07-30T00:31:07;3.50;;;1.50;;
15354;SDS011;7777;52.254;9.618;2023-07-30T00:33:33;2.30;;;1.60;;
15354;SDS011;7777;52.254;9.618;2023-07-30T00:35:59;3.77;;;1.50;;
15354;SDS011;7777;52.254;9.618;2023-07-30T00:38:24;3.67;;;1.60;;
15354;SDS011;7777;52.254;9.618;2023-07-30T00:40:50;3.87;;;1.70;;
15354;SDS011;7777;52.254;9.618;2023-07-30T00:43:16;1.90;;;1.50;;
15354;SDS011;7777;52.254;9.618;2023-07-30T00:45:42;3.70;;;2.17;;
15354;SDS011;7777;52.254;9.618;2023-07-30T00:48:10;2.03;;;1.53;;
15354;SDS011;7777;52.254;9.618;2023-07-30T00:50:38;3.87;;;2.00;;
15354;SDS011;7777;52.254;9.618;2023-07-30T00:53:04;3.43;;;2.10;;
15354;SDS011;7777;52.254;9.618;2023-07-30T00:55:31;3.33;;;1.90;;
15354;SDS011;7777;52.254;9.618;2023-07-30T00:57:57;3.60;;;2.20;;
15354;SDS011;7777;52.254;9.618;2023-07-30T01:00:23;1.77;;;1.60;;
15354;SDS011;7777;52.254;9.618;2023-07-30T01:02:50;4.50;;;1.93;;
15354;SDS011;7777;52.254;9.618;2023-07-30T01:05:16;2.83;;;2.00;;
15354;SDS011;7777;52.254;9.618;2023-07-30T01:07:43;4.40;;;1.87;;
15354;SDS011;7777;52.254;9.618;2023-07-30T01:10:09;3.70;;;1.97;;
15354;SDS011;7777;52.254;9.618;2023-07-30T01:12:35;2.77;;;2.17;;
15354;SDS011;7777;52.254;9.618;2023-07-30T01:15:02;3.47;;;2.13;;
15354;SDS011;7777;52.254;9.618;2023-07-30T01:17:29;3.53;;;1.90;;
15354;SDS011;7777;52.254;9.618;2023-07-30T01:19:55;2.63;;;1.83;;
15354;SDS011;7777;52.254;9.618;2023-07-30T01:22:22;4.10;;;2.23;;
15354;SDS011;7777;52.254;9.618;2023-07-30T01:24:48;3.60;;;2.07;;
15354;SDS011;7777;52.254;9.618;2023-07-30T01:27:22;6.90;;;2.40;;
15354;SDS011;7777;52.254;9.618;2023-07-30T01:32:51;5.80;;;2.07;;
15354;SDS011;7777;52.254;9.618;2023-07-30T01:35:21;3.13;;;2.07;;
15354;SDS011;7777;52.254;9.618;2023-07-30T01:37:51;6.10;;;2.40;;
15354;SDS011;7777;52.254;9.618;2023-07-30T01:40:17;5.03;;;2.53;;
15354;SDS011;7777;52.254;9.618;2023-07-30T01:42:44;3.00;;;1.93;;
15354;SDS011;7777;52.254;9.618;2023-07-30T01:45:10;6.40;;;2.20;;
15354;SDS011;7777;52.254;9.618;2023-07-30T01:47:36;6.27;;;2.03;;
15354;SDS011;7777;52.254;9.618;2023-07-30T01:50:01;5.33;;;2.00;;
15354;SDS011;7777;52.254;9.618;2023-07-30T01:52:28;2.93;;;1.70;;
15354;SDS011;7777;52.254;9.618;2023-07-30T01:54:53;3.60;;;1.97;;
15354;SDS011;7777;52.254;9.618;2023-07-30T01:57:21;3.30;;;2.13;;
15354;SDS011;7777;52.254;9.618;2023-07-30T01:59:46;4.30;;;1.53;;
15354;SDS011;7777;52.254;9.618;2023-07-30T02:02:12;5.50;;;1.80;;
15354;SDS011;7777;52.254;9.618;2023-07-30T02:04:38;5.40;;;1.90;;
15354;SDS011;7777;52.254;9.618;2023-07-30T02:07:03;5.30;;;2.20;;
15354;SDS011;7777;52.254;9.618;2023-07-30T02:09:29;4.23;;;2.33;;
15354;SDS011;7777;52.254;9.618;2023-07-30T02:11:55;3.97;;;2.00;;
15354;SDS011;7777;52.254;9.618;2023-07-30T02:14:21;5.33;;;2.10;;
15354;SDS011;7777;52.254;9.618;2023-07-30T02:16:46;8.07;;;2.40;;
15354;SDS011;7777;52.254;9.618;2023-07-30T02:19:12;10.10;;;2.17;;
15354;SDS011;7777;52.254;9.618;2023-07-30T02:21:38;7.77;;;2.00;;
15354;SDS011;7777;52.254;9.618;2023-07-30T02:24:07;6.13;;;2.77;;
15354;SDS011;7777;52.254;9.618;2023-07-30T02:26:36;4.70;;;2.30;;
15354;SDS011;7777;52.254;9.618;2023-07-30T02:29:02;5.53;;;2.20;;
15354;SDS011;7777;52.254;9.618;2023-07-30T02:31:28;7.97;;;2.00;;
15354;SDS011;7777;52.254;9.618;2023-07-30T02:33:54;6.57;;;2.40;;
15354;SDS011;7777;52.254;9.618;2023-07-30T02:36:19;5.73;;;1.83;;
15354;SDS011;7777;52.254;9.618;2023-07-30T02:38:45;3.57;;;1.77;;
15354;SDS011;7777;52.254;9.618;2023-07-30T02:41:11;5.60;;;2.20;;
15354;SDS011;7777;52.254;9.618;2023-07-30T02:43:37;5.87;;;2.43;;
15354;SDS011;7777;52.254;9.618;2023-07-30T02:46:02;6.03;;;2.30;;
15354;SDS011;7777;52.254;9.618;2023-07-30T02:48:28;10.57;;;2.53;;
15354;SDS011;7777;52.254;9.618;2023-07-30T02:50:54;4.70;;;2.00;;
15354;SDS011;7777;52.254;9.618;2023-07-30T02:53:20;8.87;;;2.57;;
15354;SDS011;7777;52.254;9.618;2023-07-30T02:55:45;5.87;;;2.63;;
15354;SDS011;7777;52.254;9.618;2023-07-30T02:58:11;9.87;;;2.20;;
15354;SDS011;7777;52.254;9.618;2023-07-30T03:00:37;5.53;;;2.30;;
15354;SDS011;7777;52.254;9.618;2023-07-30T03:03:03;7.93;;;2.40;;
15354;SDS011;7777;52.254;9.618;2023-07-30T03:05:29;4.53;;;2.20;;
15354;SDS011;7777;52.254;9.618;2023-07-30T03:07:55;6.23;;;2.50;;
15354;SDS011;7777;52.254;9.618;2023-07-30T03:10:20;5.10;;;2.27;;
15354;SDS011;7777;52.254;9.618;2023-07-30T03:12:46;8.10;;;2.30;;
15354;SDS011;7777;52.254;9.618;2023-07-30T03:15:12;16.13;;;2.40;;
15354;SDS011;7777;52.254;9.618;2023-07-30T03:17:38;9.47;;;2.20;;
15354;SDS011;7777;52.254;9.618;2023-07-30T03:20:04;5.93;;;2.30;;
15354;SDS011;7777;52.254;9.618;2023-07-30T03:22:30;7.53;;;2.93;;
15354;SDS011;7777;52.254;9.618;2023-07-30T03:24:56;9.93;;;2.80;;
15354;SDS011;7777;52.254;9.618;2023-07-30T03:27:22;7.10;;;2.17;;
15354;SDS011;7777;52.254;9.618;2023-07-30T03:29:48;5.63;;;2.83;;
15354;SDS011;7777;52.254;9.618;2023-07-30T03:32:13;5.87;;;2.30;;
15354;SDS011;7777;52.254;9.618;2023-07-30T03:34:39;8.30;;;2.83;;
15354;SDS011;7777;52.254;9.618;2023-07-30T03:37:05;7.23;;;2.67;;
15354;SDS011;7777;52.254;9.618;2023-07-30T03:39:30;4.40;;;2.13;;
15354;SDS011;7777;52.254;9.618;2023-07-30T03:41:56;6.47;;;2.27;;
15354;SDS011;7777;52.254;9.618;2023-07-30T03:44:22;8.80;;;2.30;;
15354;SDS011;7777;52.254;9.618;2023-07-30T03:46:48;3.80;;;2.23;;
15354;SDS011;7777;52.254;9.618;2023-07-30T03:49:16;3.87;;;2.23;;
15354;SDS011;7777;52.254;9.618;2023-07-30T03:51:42;6.23;;;2.57;;
15354;SDS011;7777;52.254;9.618;2023-07-30T03:54:08;7.70;;;2.50;;
15354;SDS011;7777;52.254;9.618;2023-07-30T03:56:34;10.53;;;2.67;;
15354;SDS011;7777;52.254;9.618;2023-07-30T03:59:00;7.63;;;2.60;;
15354;SDS011;7777;52.254;9.618;2023-07-30T04:01:25;8.60;;;2.87;;
15354;SDS011;7777;52.254;9.618;2023-07-30T04:03:51;5.33;;;2.10;;
15354;SDS011;7777;52.254;9.618;2023-07-30T04:06:17;6.33;;;2.30;;
15354;SDS011;7777;52.254;9.618;2023-07-30T04:08:43;6.93;;;2.43;;
15354;SDS011;7777;52.254;9.618;2023-07-30T04:11:08;6.80;;;2.13;;
15354;SDS011;7777;52.254;9.618;2023-07-30T04:13:34;5.80;;;2.33;;
15354;SDS011;7777;52.254;9.618;2023-07-30T04:16:00;6.80;;;2.50;;
15354;SDS011;7777;52.254;9.618;2023-07-30T04:18:25;6.10;;;2.77;;
15354;SDS011;7777;52.254;9.618;2023-07-30T04:20:54;7.23;;;3.00;;
15354;SDS011;7777;52.254;9.618;2023-07-30T04:23:22;5.83;;;3.87;;
15354;SDS011;7777;52.254;9.618;2023-07-30T04:25:48;6.80;;;3.37;;
15354;SDS011;7777;52.254;9.618;2023-07-30T04:28:15;7.70;;;3.80;;
15354;SDS011;7777;52.254;9.618;2023-07-30T04:30:41;8.60;;;4.00;;
15354;SDS011;7777;52.254;9.618;2023-07-30T04:33:07;12.90;;;4.33;;
15354;SDS011;7777;52.254;9.618;2023-07-30T04:35:32;14.60;;;5.00;;
15354;SDS011;7777;52.254;9.618;2023-07-30T04:37:58;8.07;;;4.47;;
15354;SDS011;7777;52.254;9.618;2023-07-30T04:40:24;8.10;;;4.37;;
15354;SDS011;7777;52.254;9.618;2023-07-30T04:42:50;8.53;;;4.70;;
15354;SDS011;7777;52.254;9.618;2023-07-30T04:45:15;12.97;;;5.00;;
15354;SDS011;7777;52.254;9.618;2023-07-30T04:47:41;10.87;;;4.57;;
15354;SDS011;7777;52.254;9.618;2023-07-30T04:50:07;10.60;;;3.97;;
15354;SDS011;7777;52.254;9.618;2023-07-30T04:52:33;9.73;;;4.40;;
15354;SDS011;7777;52.254;9.618;2023-07-30T04:54:59;7.67;;;3.77;;
15354;SDS011;7777;52.254;9.618;2023-07-30T04:57:24;8.93;;;4.37;;
15354;SDS011;7777;52.254;9.618;2023-07-30T04:59:51;8.20;;;5.03;;
15354;SDS011;7777;52.254;9.618;2023-07-30T05:02:16;9.17;;;5.37;;
15354;SDS011;7777;52.254;9.618;2023-07-30T05:04:42;14.93;;;5.60;;
15354;SDS011;7777;52.254;9.618;2023-07-30T05:07:08;10.73;;;6.07;;
15354;SDS011;7777;52.254;9.618;2023-07-30T05:09:34;10.50;;;5.73;;
15354;SDS011;7777;52.254;9.618;2023-07-30T05:11:59;12.77;;;5.77;;
15354;SDS011;7777;52.254;9.618;2023-07-30T05:14:25;10.67;;;6.10;;
15354;SDS011;7777;52.254;9.618;2023-07-30T05:16:51;8.90;;;5.80;;
15354;SDS011;7777;52.254;9.618;2023-07-30T05:19:16;12.47;;;6.63;;
15354;SDS011;7777;52.254;9.618;2023-07-30T05:21:42;9.30;;;6.27;;
15354;SDS011;7777;52.254;9.618;2023-07-30T05:24:08;9.10;;;5.93;;
15354;SDS011;7777;52.254;9.618;2023-07-30T05:26:34;10.57;;;6.03;;
15354;SDS011;7777;52.254;9.618;2023-07-30T05:28:59;7.30;;;6.00;;
15354;SDS011;7777;52.254;9.618;2023-07-30T05:31:25;7.17;;;5.80;;
15354;SDS011;7777;52.254;9.618;2023-07-30T05:33:51;13.57;;;6.37;;
15354;SDS011;7777;52.254;9.618;2023-07-30T05:36:17;9.17;;;7.13;;
15354;SDS011;7777;52.254;9.618;2023-07-30T05:38:43;9.60;;;6.30;;
15354;SDS011;7777;52.254;9.618;2023-07-30T05:41:08;7.87;;;5.67;;
15354;SDS011;7777;52.254;9.618;2023-07-30T05:43:34;10.30;;;6.27;;
15354;SDS011;7777;52.254;9.618;2023-07-30T05:46:00;15.40;;;5.83;;
15354;SDS011;7777;52.254;9.618;2023-07-30T05:48:26;9.87;;;6.00;;
15354;SDS011;7777;52.254;9.618;2023-07-30T05:50:54;8.53;;;5.77;;
15354;SDS011;7777;52.254;9.618;2023-07-30T05:53:20;9.27;;;5.27;;
15354;SDS011;7777;52.254;9.618;2023-07-30T05:55:46;7.47;;;5.33;;
15354;SDS011;7777;52.254;9.618;2023-07-30T05:58:12;7.43;;;4.80;;
15354;SDS011;7777;52.254;9.618;2023-07-30T06:00:39;13.03;;;5.40;;
15354;SDS011;7777;52.254;9.618;2023-07-30T06:03:04;10.97;;;5.33;;
15354;SDS011;7777;52.254;9.618;2023-07-30T06:05:31;9.10;;;5.13;;
15354;SDS011;7777;52.254;9.618;2023-07-30T06:07:57;7.60;;;4.60;;
15354;SDS011;7777;52.254;9.618;2023-07-30T06:10:24;9.17;;;3.93;;
15354;SDS011;7777;52.254;9.618;2023-07-30T06:12:50;18.70;;;4.40;;
15354;SDS011;7777;52.254;9.618;2023-07-30T06:15:16;7.53;;;4.23;;
15354;SDS011;7777;52.254;9.618;2023-07-30T06:17:42;7.90;;;3.63;;
15354;SDS011;7777;52.254;9.618;2023-07-30T06:20:08;6.43;;;3.50;;
15354;SDS011;7777;52.254;9.618;2023-07-30T06:22:34;8.50;;;3.07;;
15354;SDS011;7777;52.254;9.618;2023-07-30T06:25:00;5.17;;;2.93;;
15354;SDS011;7777;52.254;9.618;2023-07-30T06:27:28;7.13;;;3.37;;
15354;SDS011;7777;52.254;9.618;2023-07-30T06:29:55;7.83;;;3.10;;
15354;SDS011;7777;52.254;9.618;2023-07-30T06:32:21;8.20;;;3.20;;
15354;SDS011;7777;52.254;9.618;2023-07-30T06:34:46;7.23;;;3.30;;
15354;SDS011;7777;52.254;9.618;2023-07-30T06:37:12;5.53;;;2.63;;
15354;SDS011;7777;52.254;9.618;2023-07-30T06:39:38;9.73;;;2.47;;
15354;SDS011;7777;52.254;9.618;2023-07-30T06:42:04;8.83;;;2.70;;
15354;SDS011;7777;52.254;9.618;2023-07-30T06:44:30;5.30;;;2.30;;
15354;SDS011;7777;52.254;9.618;2023-07-30T06:46:56;10.07;;;3.13;;
15354;SDS011;7777;52.254;9.618;2023-07-30T06:49:22;6.57;;;2.43;;
15354;SDS011;7777;52.254;9.618;2023-07-30T06:51:48;4.20;;;1.97;;
15354;SDS011;7777;52.254;9.618;2023-07-30T06:54:16;8.37;;;2.53;;
15354;SDS011;7777;52.254;9.618;2023-07-30T06:56:43;7.40;;;2.53;;
15354;SDS011;7777;52.254;9.618;2023-07-30T06:59:09;6.07;;;1.90;;
15354;SDS011;7777;52.254;9.618;2023-07-30T07:01:38;9.83;;;2.20;;
15354;SDS011;7777;52.254;9.618;2023-07-30T07:04:03;6.93;;;2.63;;
15354;SDS011;7777;52.254;9.618;2023-07-30T07:06:29;9.50;;;2.57;;
15354;SDS011;7777;52.254;9.618;2023-07-30T07:08:55;8.13;;;2.97;;
15354;SDS011;7777;52.254;9.618;2023-07-30T07:11:21;9.60;;;2.83;;
15354;SDS011;7777;52.254;9.618;2023-07-30T07:13:50;6.03;;;2.27;;
15354;SDS011;7777;52.254;9.618;2023-07-30T07:16:15;7.77;;;2.40;;
15354;SDS011;7777;52.254;9.618;2023-07-30T07:18:41;7.03;;;2.30;;
15354;SDS011;7777;52.254;9.618;2023-07-30T07:21:09;5.90;;;1.93;;
15354;SDS011;7777;52.254;9.618;2023-07-30T07:23:35;11.57;;;3.07;;
15354;SDS011;7777;52.254;9.618;2023-07-30T07:26:01;9.77;;;2.57;;
15354;SDS011;7777;52.254;9.618;2023-07-30T07:28:27;5.80;;;2.57;;
15354;SDS011;7777;52.254;9.618;2023-07-30T07:30:54;8.03;;;2.10;;
15354;SDS011;7777;52.254;9.618;2023-07-30T07:33:20;8.17;;;2.30;;
15354;SDS011;7777;52.254;9.618;2023-07-30T07:35:47;5.97;;;2.43;;
15354;SDS011;7777;52.254;9.618;2023-07-30T07:38:13;5.67;;;2.33;;
15354;SDS011;7777;52.254;9.618;2023-07-30T07:40:39;4.03;;;1.70;;
15354;SDS011;7777;52.254;9.618;2023-07-30T07:43:05;5.23;;;2.23;;
15354;SDS011;7777;52.254;9.618;2023-07-30T07:45:32;8.07;;;2.10;;
15354;SDS011;7777;52.254;9.618;2023-07-30T07:47:58;6.83;;;2.00;;
15354;SDS011;7777;52.254;9.618;2023-07-30T07:50:24;9.43;;;2.30;;
15354;SDS011;7777;52.254;9.618;2023-07-30T07:52:49;8.17;;;2.33;;
15354;SDS011;7777;52.254;9.618;2023-07-30T07:55:16;4.57;;;2.47;;
15354;SDS011;7777;52.254;9.618;2023-07-30T07:57:45;5.73;;;2.47;;
15354;SDS011;7777;52.254;9.618;2023-07-30T08:00:10;8.43;;;2.10;;
15354;SDS011;7777;52.254;9.618;2023-07-30T08:02:36;5.57;;;2.33;;
15354;SDS011;7777;52.254;9.618;2023-07-30T08:05:02;9.30;;;2.70;;
15354;SDS011;7777;52.254;9.618;2023-07-30T08:07:28;7.77;;;2.90;;
15354;SDS011;7777;52.254;9.618;2023-07-30T08:09:54;7.43;;;2.60;;
15354;SDS011;7777;52.254;9.618;2023-07-30T08:12:20;9.73;;;3.03;;
15354;SDS011;7777;52.254;9.618;2023-07-30T08:14:46;9.87;;;3.07;;
15354;SDS011;7777;52.254;9.618;2023-07-30T08:17:11;5.70;;;2.33;;
15354;SDS011;7777;52.254;9.618;2023-07-30T08:19:37;9.00;;;2.67;;
15354;SDS011;7777;52.254;9.618;2023-07-30T08:22:03;7.97;;;3.00;;
15354;SDS011;7777;52.254;9.618;2023-07-30T08:24:29;7.00;;;2.73;;
15354;SDS011;7777;52.254;9.618;2023-07-30T08:26:54;8.13;;;2.93;;
15354;SDS011;7777;52.254;9.618;2023-07-30T08:29:20;5.07;;;2.40;;
15354;SDS011;7777;52.254;9.618;2023-07-30T08:31:46;6.73;;;2.63;;
15354;SDS011;7777;52.254;9.618;2023-07-30T08:34:11;7.00;;;2.63;;
15354;SDS011;7777;52.254;9.618;2023-07-30T08:36:38;9.57;;;3.20;;
15354;SDS011;7777;52.254;9.618;2023-07-30T08:39:04;13.57;;;2.90;;
15354;SDS011;7777;52.254;9.618;2023-07-30T08:41:30;5.80;;;2.40;;
15354;SDS011;7777;52.254;9.618;2023-07-30T08:43:56;8.73;;;3.53;;
15354;SDS011;7777;52.254;9.618;2023-07-30T08:46:21;7.80;;;3.10;;
15354;SDS011;7777;52.254;9.618;2023-07-30T08:48:47;7.20;;;3.50;;
15354;SDS011;7777;52.254;9.618;2023-07-30T08:51:18;7.77;;;3.80;;
15354;SDS011;7777;52.254;9.618;2023-07-30T08:53:50;7.90;;;3.30;;
15354;SDS011;7777;52.254;9.618;2023-07-30T08:56:18;13.80;;;3.90;;
15354;SDS011;7777;52.254;9.618;2023-07-30T08:58:44;8.73;;;3.17;;
15354;SDS011;7777;52.254;9.618;2023-07-30T09:01:11;7.37;;;3.17;;
15354;SDS011;7777;52.254;9.618;2023-07-30T09:03:38;6.90;;;3.00;;
15354;SDS011;7777;52.254;9.618;2023-07-30T09:06:06;12.10;;;3.60;;
15354;SDS011;7777;52.254;9.618;2023-07-30T09:08:32;4.97;;;2.63;;
15354;SDS011;7777;52.254;9.618;2023-07-30T09:11:08;7.87;;;2.27;;
15354;SDS011;7777;52.254;9.618;2023-07-30T09:13:40;9.90;;;2.87;;
15354;SDS011;7777;52.254;9.618;2023-07-30T09:16:15;5.73;;;2.30;;
15354;SDS011;7777;52.254;9.618;2023-07-30T09:18:44;8.50;;;3.20;;
15354;SDS011;7777;52.254;9.618;2023-07-30T09:21:11;7.90;;;2.47;;
15354;SDS011;7777;52.254;9.618;2023-07-30T09:23:45;7.40;;;2.53;;
15354;SDS011;7777;52.254;9.618;2023-07-30T09:26:12;11.90;;;2.87;;
15354;SDS011;7777;52.254;9.618;2023-07-30T09:28:41;7.70;;;3.00;;
15354;SDS011;7777;52.254;9.618;2023-07-30T09:31:08;7.27;;;3.00;;
15354;SDS011;7777;52.254;9.618;2023-07-30T09:33:34;5.53;;;2.90;;
15354;SDS011;7777;52.254;9.618;2023-07-30T09:36:04;5.83;;;2.87;;
15354;SDS011;7777;52.254;9.618;2023-07-30T09:38:38;7.50;;;3.30;;
15354;SDS011;7777;52.254;9.618;2023-07-30T09:41:05;9.40;;;3.80;;
15354;SDS011;7777;52.254;9.618;2023-07-30T09:43:34;6.43;;;3.60;;
15354;SDS011;7777;52.254;9.618;2023-07-30T09:46:01;9.20;;;3.50;;
15354;SDS011;7777;52.254;9.618;2023-07-30T09:48:32;12.17;;;3.90;;
15354;SDS011;7777;52.254;9.618;2023-07-30T09:50:59;11.53;;;4.67;;
15354;SDS011;7777;52.254;9.618;2023-07-30T09:53:30;11.03;;;4.30;;
15354;SDS011;7777;52.254;9.618;2023-07-30T09:55:59;8.67;;;3.63;;
15354;SDS011;7777;52.254;9.618;2023-07-30T09:58:30;12.43;;;4.73;;
15354;SDS011;7777;52.254;9.618;2023-07-30T10:01:00;11.47;;;4.83;;
15354;SDS011;7777;52.254;9.618;2023-07-30T10:03:28;10.50;;;4.57;;
15354;SDS011;7777;52.254;9.618;2023-07-30T10:05:55;8.77;;;4.23;;
15354;SDS011;7777;52.254;9.618;2023-07-30T10:08:28;6.83;;;4.10;;
15354;SDS011;7777;52.254;9.618;2023-07-30T10:10:57;8.27;;;4.73;;
15354;SDS011;7777;52.254;9.618;2023-07-30T10:13:24;6.30;;;4.20;;
15354;SDS011;7777;52.254;9.618;2023-07-30T10:15:51;9.67;;;5.33;;
15354;SDS011;7777;52.254;9.618;2023-07-30T10:18:17;9.40;;;5.27;;
15354;SDS011;7777;52.254;9.618;2023-07-30T10:20:53;8.87;;;5.33;;
15354;SDS011;7777;52.254;9.618;2023-07-30T10:23:20;10.90;;;5.60;;
15354;SDS011;7777;52.254;9.618;2023-07-30T10:25:46;11.93;;;5.90;;
15354;SDS011;7777;52.254;9.618;2023-07-30T10:30:56;9.03;;;5.90;;
15354;SDS011;7777;52.254;9.618;2023-07-30T10:33:23;12.83;;;6.63;;
15354;SDS011;7777;52.254;9.618;2023-07-30T10:35:52;13.13;;;6.23;;
15354;SDS011;7777;52.254;9.618;2023-07-30T10:43:37;10.90;;;5.93;;
15354;SDS011;7777;52.254;9.618;2023-07-30T10:46:21;13.63;;;6.17;;
15354;SDS011;7777;52.254;9.618;2023-07-30T10:48:48;10.50;;;6.03;;
15354;SDS011;7777;52.254;9.618;2023-07-30T10:51:15;12.57;;;6.00;;
15354;SDS011;7777;52.254;9.618;2023-07-30T10:53:46;10.07;;;6.20;;
15354;SDS011;7777;52.254;9.618;2023-07-30T10:56:13;8.77;;;6.33;;
15354;SDS011;7777;52.254;9.618;2023-07-30T10:58:42;12.80;;;7.17;;
15354;SDS011;7777;52.254;9.618;2023-07-30T11:01:14;10.93;;;6.87;;
15354;SDS011;7777;52.254;9.618;2023-07-30T11:03:40;14.03;;;7.37;;
15354;SDS011;7777;52.254;9.618;2023-07-30T11:06:06;13.17;;;7.77;;
15354;SDS011;7777;52.254;9.618;2023-07-30T11:08:42;15.00;;;7.50;;
15354;SDS011;7777;52.254;9.618;2023-07-30T11:11:09;12.77;;;7.80;;
15354;SDS011;7777;52.254;9.618;2023-07-30T11:13:36;9.67;;;7.60;;
15354;SDS011;7777;52.254;9.618;2023-07-30T11:16:04;11.47;;;7.57;;
15354;SDS011;7777;52.254;9.618;2023-07-30T11:18:32;12.50;;;7.80;;
15354;SDS011;7777;52.254;9.618;2023-07-30T11:21:09;12.33;;;7.80;;
15354;SDS011;7777;52.254;9.618;2023-07-30T11:23:37;11.23;;;8.23;;
15354;SDS011;7777;52.254;9.618;2023-07-30T11:26:07;13.77;;;8.23;;
15354;SDS011;7777;52.254;9.618;2023-07-30T11:28:35;10.83;;;7.40;;
15354;SDS011;7777;52.254;9.618;2023-07-30T11:31:08;14.23;;;8.33;;
15354;SDS011;7777;52.254;9.618;2023-07-30T11:33:41;12.33;;;8.27;;
15354;SDS011;7777;52.254;9.618;2023-07-30T11:36:15;12.67;;;8.40;;
15354;SDS011;7777;52.254;9.618;2023-07-30T11:38:45;11.40;;;8.20;;
15354;SDS011;7777;52.254;9.618;2023-07-30T11:41:13;15.30;;;8.27;;
15354;SDS011;7777;52.254;9.618;2023-07-30T11:43:41;11.73;;;7.87;;
15354;SDS011;7777;52.254;9.618;2023-07-30T11:48:47;17.63;;;8.23;;
15354;SDS011;7777;52.254;9.618;2023-07-30T11:51:18;13.60;;;7.33;;
15354;SDS011;7777;52.254;9.618;2023-07-30T11:58:58;10.07;;;6.30;;
15354;SDS011;7777;52.254;9.618;2023-07-30T12:01:25;12.50;;;5.90;;
15354;SDS011;7777;52.254;9.618;2023-07-30T12:03:54;12.47;;;6.93;;
15354;SDS011;7777;52.254;9.618;2023-07-30T12:06:21;9.47;;;5.80;;
15354;SDS011;7777;52.254;9.618;2023-07-30T12:08:50;9.63;;;5.40;;
15354;SDS011;7777;52.254;9.618;2023-07-30T12:11:17;8.67;;;5.53;;
15354;SDS011;7777;52.254;9.618;2023-07-30T12:13:46;10.97;;;6.00;;
15354;SDS011;7777;52.254;9.618;2023-07-30T12:16:15;10.33;;;5.50;;
15354;SDS011;7777;52.254;9.618;2023-07-30T12:18:41;9.87;;;5.63;;
15354;SDS011;7777;52.254;9.618;2023-07-30T12:21:07;8.67;;;5.10;;
15354;SDS011;7777;52.254;9.618;2023-07-30T12:23:36;6.80;;;4.30;;
15354;SDS011;7777;52.254;9.618;2023-07-30T12:26:03;9.73;;;4.70;;
15354;SDS011;7777;52.254;9.618;2023-07-30T12:28:32;9.50;;;4.97;;
15354;SDS011;7777;52.254;9.618;2023-07-30T12:30:59;10.27;;;5.07;;
15354;SDS011;7777;52.254;9.618;2023-07-30T12:33:25;10.23;;;5.27;;
15354;SDS011;7777;52.254;9.618;2023-07-30T12:35:51;9.03;;;4.20;;
15354;SDS011;7777;52.254;9.618;2023-07-30T12:38:18;7.77;;;5.03;;
15354;SDS011;7777;52.254;9.618;2023-07-30T12:40:43;7.90;;;4.73;;
15354;SDS011;7777;52.254;9.618;2023-07-30T12:43:09;7.60;;;4.67;;
15354;SDS011;7777;52.254;9.618;2023-07-30T12:45:35;6.93;;;4.50;;
15354;SDS011;7777;52.254;9.618;2023-07-30T12:48:01;7.33;;;4.37;;
15354;SDS011;7777;52.254;9.618;2023-07-30T12:50:27;11.93;;;4.80;;
15354;SDS011;7777;52.254;9.618;2023-07-30T12:52:52;8.93;;;4.10;;
15354;SDS011;7777;52.254;9.618;2023-07-30T12:55:19;7.07;;;4.07;;
15354;SDS011;7777;52.254;9.618;2023-07-30T12:57:45;8.93;;;3.80;;
15354;SDS011;7777;52.254;9.618;2023-07-30T13:00:11;9.80;;;3.90;;
15354;SDS011;7777;52.254;9.618;2023-07-30T13:02:37;10.43;;;4.67;;
15354;SDS011;7777;52.254;9.618;2023-07-30T13:05:03;6.93;;;3.83;;
15354;SDS011;7777;52.254;9.618;2023-07-30T13:07:29;7.83;;;4.10;;
15354;SDS011;7777;52.254;9.618;2023-07-30T13:10:05;11.13;;;4.10;;
15354;SDS011;7777;52.254;9.618;2023-07-30T13:12:32;9.17;;;4.33;;
15354;SDS011;7777;52.254;9.618;2023-07-30T13:14:59;8.87;;;4.13;;
15354;SDS011;7777;52.254;9.618;2023-07-30T13:17:25;7.43;;;3.87;;
15354;SDS011;7777;52.254;9.618;2023-07-30T13:19:51;5.53;;;3.53;;
15354;SDS011;7777;52.254;9.618;2023-07-30T13:22:17;7.93;;;3.77;;
15354;SDS011;7777;52.254;9.618;2023-07-30T13:24:42;8.77;;;4.57;;
15354;SDS011;7777;52.254;9.618;2023-07-30T13:27:08;7.33;;;3.70;;
15354;SDS011;7777;52.254;9.618;2023-07-30T13:29:41;5.60;;;3.53;;
15354;SDS011;7777;52.254;9.618;2023-07-30T13:32:10;6.20;;;3.00;;
15354;SDS011;7777;52.254;9.618;2023-07-30T13:34:36;8.03;;;3.00;;
15354;SDS011;7777;52.254;9.618;2023-07-30T13:37:01;10.33;;;3.07;;
15354;SDS011;7777;52.254;9.618;2023-07-30T13:39:27;9.77;;;3.37;;
15354;SDS011;7777;52.254;9.618;2023-07-30T13:41:53;5.70;;;3.10;;
15354;SDS011;7777;52.254;9.618;2023-07-30T13:44:19;5.30;;;2.57;;
15354;SDS011;7777;52.254;9.618;2023-07-30T13:46:45;5.27;;;2.60;;
15354;SDS011;7777;52.254;9.618;2023-07-30T13:49:11;4.87;;;2.10;;
15354;SDS011;7777;52.254;9.618;2023-07-30T13:51:37;8.17;;;2.30;;
15354;SDS011;7777;52.254;9.618;2023-07-30T13:54:03;4.53;;;2.47;;
15354;SDS011;7777;52.254;9.618;2023-07-30T13:56:33;5.90;;;2.13;;
15354;SDS011;7777;52.254;9.618;2023-07-30T13:58:59;6.10;;;2.47;;
15354;SDS011;7777;52.254;9.618;2023-07-30T14:01:25;6.40;;;2.33;;
15354;SDS011;7777;52.254;9.618;2023-07-30T14:03:51;6.97;;;2.90;;
15354;SDS011;7777;52.254;9.618;2023-07-30T14:06:19;6.80;;;2.20;;
15354;SDS011;7777;52.254;9.618;2023-07-30T14:08:45;6.20;;;2.27;;
15354;SDS011;7777;52.254;9.618;2023-07-30T14:11:11;6.83;;;2.33;;
15354;SDS011;7777;52.254;9.618;2023-07-30T14:13:37;5.77;;;2.20;;
15354;SDS011;7777;52.254;9.618;2023-07-30T14:16:03;5.30;;;2.20;;
15354;SDS011;7777;52.254;9.618;2023-07-30T14:18:28;8.20;;;2.20;;
15354;SDS011;7777;52.254;9.618;2023-07-30T14:20:54;8.20;;;2.43;;
15354;SDS011;7777;52.254;9.618;2023-07-30T14:23:20;8.03;;;2.40;;
15354;SDS011;7777;52.254;9.618;2023-07-30T14:25:46;5.83;;;2.03;;
15354;SDS011;7777;52.254;9.618;2023-07-30T14:28:11;7.27;;;2.17;;
15354;SDS011;7777;52.254;9.618;2023-07-30T14:30:39;5.93;;;1.90;;
15354;SDS011;7777;52.254;9.618;2023-07-30T14:33:09;5.70;;;1.90;;
15354;SDS011;7777;52.254;9.618;2023-07-30T14:35:36;4.27;;;1.40;;
15354;SDS011;7777;52.254;9.618;2023-07-30T14:38:03;5.03;;;1.60;;
15354;SDS011;7777;52.254;9.618;2023-07-30T14:40:30;4.53;;;1.87;;
15354;SDS011;7777;52.254;9.618;2023-07-30T14:42:56;6.70;;;1.73;;
15354;SDS011;7777;52.254;9.618;2023-07-30T14:45:25;4.20;;;1.30;;
15354;SDS011;7777;52.254;9.618;2023-07-30T14:47:51;4.97;;;1.60;;
15354;SDS011;7777;52.254;9.618;2023-07-30T14:50:17;3.77;;;1.67;;
15354;SDS011;7777;52.254;9.618;2023-07-30T14:52:42;6.13;;;2.07;;
15354;SDS011;7777;52.254;9.618;2023-07-30T14:55:08;7.33;;;2.00;;
15354;SDS011;7777;52.254;9.618;2023-07-30T14:57:34;3.07;;;1.40;;
15354;SDS011;7777;52.254;9.618;2023-07-30T14:59:59;4.23;;;1.60;;
15354;SDS011;7777;52.254;9.618;2023-07-30T15:02:26;4.67;;;1.23;;
15354;SDS011;7777;52.254;9.618;2023-07-30T15:04:53;7.73;;;1.70;;
15354;SDS011;7777;52.254;9.618;2023-07-30T15:07:19;11.13;;;2.30;;
15354;SDS011;7777;52.254;9.618;2023-07-30T15:09:45;3.57;;;1.23;;
15354;SDS011;7777;52.254;9.618;2023-07-30T15:12:11;3.90;;;1.50;;
15354;SDS011;7777;52.254;9.618;2023-07-30T15:14:37;3.10;;;1.00;;